Airport View

Enter AWOS ICAO identifier for current METAR.

ex. KFNL

KCMR 171210Z AUTO 16011KT 10SM FEW024 M03/M10 A3027 RMK AO2 PWINO

17 Nov 2019 12:10

Frequency: 121.125

Phone: 928-635-1278

Other Area AWOS: KFLG - KSEZ - P52 - KGCN

TAF KFLG 171120Z 1712/1812 VRB02KT P6SM SKC FM171700 07010KT P6SM SKC FM180130 00000KT P6SM SKC